createdAt,value
2019-03-26T00:01:40.723Z,10.52
2019-03-26T00:04:09.613Z,10.62
2019-03-26T00:06:38.607Z,10.57
2019-03-26T00:09:09.139Z,10.41
2019-03-26T00:11:38.083Z,10.49
2019-03-26T00:14:06.934Z,10.46
2019-03-26T00:16:35.801Z,10.46
2019-03-26T00:19:04.625Z,10.33
2019-03-26T00:21:33.485Z,10.23
2019-03-26T00:24:02.332Z,10.14
2019-03-26T00:26:31.160Z,10.12
2019-03-26T00:29:00.053Z,10.14
2019-03-26T00:31:28.872Z,10.15
2019-03-26T00:33:57.725Z,10.16
2019-03-26T00:36:26.556Z,10.12
2019-03-26T00:38:55.410Z,10.00
2019-03-26T00:41:24.252Z,9.98
2019-03-26T00:43:53.082Z,9.97
2019-03-26T00:46:21.923Z,9.89
2019-03-26T00:48:50.842Z,9.86
2019-03-26T00:51:19.711Z,9.82
2019-03-26T00:53:48.636Z,9.81
2019-03-26T00:56:17.538Z,9.83
2019-03-26T00:58:46.423Z,9.83
2019-03-26T01:01:15.287Z,9.90
2019-03-26T01:03:44.170Z,9.82
2019-03-26T01:06:13.028Z,9.73
2019-03-26T01:08:41.869Z,9.65
2019-03-26T01:11:10.703Z,9.56
2019-03-26T01:13:39.533Z,9.40
2019-03-26T01:16:08.389Z,9.36
2019-03-26T01:18:37.218Z,9.41
2019-03-26T01:21:06.051Z,9.40
2019-03-26T01:23:34.915Z,9.34
2019-03-26T01:26:03.732Z,9.33
2019-03-26T01:28:32.608Z,9.21
2019-03-26T01:31:01.566Z,9.24
2019-03-26T01:33:30.403Z,9.18
2019-03-26T01:35:59.242Z,9.19
2019-03-26T01:38:28.073Z,9.13
2019-03-26T01:40:56.977Z,9.07
2019-03-26T01:43:25.821Z,9.08
2019-03-26T01:45:54.667Z,9.11
2019-03-26T01:48:23.550Z,9.25
2019-03-26T01:50:52.419Z,9.35
2019-03-26T01:53:21.264Z,9.42
2019-03-26T01:55:50.089Z,9.48
2019-03-26T01:58:18.938Z,9.60
2019-03-26T02:00:47.775Z,9.67
2019-03-26T02:03:16.625Z,9.76
2019-03-26T02:05:45.462Z,9.82
2019-03-26T02:08:14.307Z,9.94
2019-03-26T02:10:43.132Z,10.06
2019-03-26T02:13:11.987Z,10.05
2019-03-26T02:15:41.359Z,10.00
2019-03-26T02:18:10.138Z,10.02
2019-03-26T02:20:38.830Z,10.08
2019-03-26T02:23:07.520Z,10.02
2019-03-26T02:25:36.184Z,9.98
2019-03-26T02:28:04.868Z,9.94
2019-03-26T02:30:33.562Z,9.92
2019-03-26T02:33:02.232Z,9.90
2019-03-26T02:35:30.920Z,9.83
2019-03-26T02:37:59.599Z,9.80
2019-03-26T02:40:28.266Z,9.74
2019-03-26T02:42:56.973Z,9.71
2019-03-26T02:45:25.653Z,9.61
2019-03-26T02:47:54.428Z,9.54
2019-03-26T02:50:23.129Z,9.51
2019-03-26T02:52:51.804Z,9.47
2019-03-26T02:55:20.494Z,9.41
2019-03-26T02:57:49.168Z,9.42
2019-03-26T03:00:17.961Z,9.36
2019-03-26T03:02:46.682Z,9.31
2019-03-26T03:05:15.459Z,9.24
2019-03-26T03:07:44.130Z,9.27
2019-03-26T03:10:13.010Z,9.13
2019-03-26T03:12:41.705Z,9.20
2019-03-26T03:15:10.821Z,9.09
2019-03-26T03:17:39.465Z,9.02
2019-03-26T03:20:08.141Z,8.94
2019-03-26T03:22:36.806Z,8.87
2019-03-26T03:25:06.309Z,8.85
2019-03-26T03:27:34.997Z,8.82
2019-03-26T03:30:04.193Z,8.78
2019-03-26T03:32:32.922Z,8.75
2019-03-26T03:35:01.596Z,8.76
2019-03-26T03:37:30.281Z,8.77
2019-03-26T03:39:58.972Z,8.65
2019-03-26T03:42:27.657Z,8.45
2019-03-26T03:44:56.342Z,8.61
2019-03-26T03:47:27.931Z,8.51
2019-03-26T03:49:59.245Z,8.52
2019-03-26T03:52:30.819Z,8.46
2019-03-26T03:54:59.713Z,8.45
2019-03-26T03:57:31.303Z,8.38
2019-03-26T04:00:01.917Z,8.42
2019-03-26T04:02:30.573Z,8.42
2019-03-26T04:04:59.305Z,8.41
2019-03-26T04:07:27.992Z,8.34
2019-03-26T04:09:56.665Z,8.27
2019-03-26T04:12:25.375Z,8.24
2019-03-26T04:14:54.055Z,8.17
2019-03-26T04:17:22.737Z,8.18
2019-03-26T04:19:51.380Z,8.16
2019-03-26T04:22:20.065Z,8.17
2019-03-26T04:24:48.793Z,8.12
2019-03-26T04:27:17.512Z,8.05
2019-03-26T04:29:46.196Z,8.04
2019-03-26T04:32:14.904Z,8.10
2019-03-26T04:34:43.605Z,8.16
2019-03-26T04:37:12.347Z,7.94
2019-03-26T04:39:41.017Z,8.09
2019-03-26T04:42:09.705Z,8.06
2019-03-26T04:44:38.358Z,8.05
2019-03-26T04:47:07.031Z,7.98
2019-03-26T04:49:35.715Z,8.04
2019-03-26T04:52:04.396Z,7.89
2019-03-26T04:54:33.079Z,7.95
2019-03-26T04:57:01.739Z,8.01
2019-03-26T04:59:30.413Z,8.04
2019-03-26T05:01:59.095Z,8.16
2019-03-26T05:04:27.797Z,8.07
2019-03-26T05:06:56.498Z,8.13
2019-03-26T05:09:25.152Z,8.16
2019-03-26T05:11:53.897Z,8.09
2019-03-26T05:14:22.590Z,8.15
2019-03-26T05:16:51.269Z,8.08
2019-03-26T05:19:19.935Z,8.15
2019-03-26T05:21:48.628Z,8.16
2019-03-26T05:24:17.308Z,8.10
2019-03-26T05:26:45.980Z,8.13
2019-03-26T05:29:14.696Z,8.08
2019-03-26T05:31:43.539Z,8.20
2019-03-26T05:34:12.223Z,8.14
2019-03-26T05:36:50.623Z,8.23
2019-03-26T05:39:11.356Z,8.08
2019-03-26T05:41:40.034Z,8.23
2019-03-26T05:44:08.712Z,8.34
2019-03-26T05:46:37.410Z,8.36
2019-03-26T05:49:06.091Z,8.40
2019-03-26T05:51:34.761Z,8.46
2019-03-26T05:54:03.447Z,8.35
2019-03-26T05:56:32.154Z,8.51
2019-03-26T05:59:01.194Z,8.68
2019-03-26T06:01:29.910Z,8.87
2019-03-26T06:03:58.687Z,9.21
2019-03-26T06:06:27.364Z,9.48
2019-03-26T06:08:56.045Z,9.47
2019-03-26T06:11:25.775Z,9.45
2019-03-26T06:13:54.412Z,9.32
2019-03-26T06:16:23.104Z,9.52
2019-03-26T06:18:51.792Z,9.53
2019-03-26T06:21:20.459Z,9.48
2019-03-26T06:23:49.149Z,9.80
2019-03-26T06:26:17.832Z,10.15
2019-03-26T06:28:46.525Z,10.21
2019-03-26T06:31:15.445Z,10.14
2019-03-26T06:33:44.697Z,10.39
2019-03-26T06:36:13.379Z,10.55
2019-03-26T06:38:42.097Z,10.59
2019-03-26T06:41:10.925Z,10.43
2019-03-26T06:43:39.788Z,10.07
2019-03-26T06:46:08.490Z,10.19
2019-03-26T06:48:37.183Z,10.11
2019-03-26T06:51:05.863Z,10.17
2019-03-26T06:53:34.569Z,10.58
2019-03-26T06:56:03.358Z,11.18
2019-03-26T06:58:32.103Z,11.60
2019-03-26T07:01:00.948Z,12.27
2019-03-26T07:03:29.629Z,12.36
2019-03-26T07:05:58.343Z,12.20
2019-03-26T07:08:27.049Z,12.33
2019-03-26T07:10:55.751Z,12.40
2019-03-26T07:13:24.441Z,12.21
2019-03-26T07:15:53.142Z,11.21
2019-03-26T07:18:21.931Z,10.94
2019-03-26T07:20:50.697Z,11.08
2019-03-26T07:23:25.716Z,10.83
2019-03-26T07:25:54.404Z,10.85
2019-03-26T07:28:23.419Z,11.03
2019-03-26T07:30:52.139Z,11.19
2019-03-26T07:33:20.831Z,10.89
2019-03-26T07:35:49.668Z,10.93
2019-03-26T07:38:18.839Z,11.58
2019-03-26T07:40:47.812Z,11.41
2019-03-26T07:43:16.538Z,11.53
2019-03-26T07:45:45.727Z,11.68
2019-03-26T07:48:14.666Z,12.17
2019-03-26T07:50:43.532Z,12.61
2019-03-26T07:53:12.363Z,12.83
2019-03-26T07:55:43.709Z,14.08
2019-03-26T07:58:11.532Z,15.07
2019-03-26T08:00:40.222Z,14.51
2019-03-26T08:03:09.125Z,14.07
2019-03-26T08:05:38.003Z,13.68
2019-03-26T08:08:06.796Z,14.12
2019-03-26T08:10:35.478Z,13.55
2019-03-26T08:13:04.282Z,13.46
2019-03-26T08:15:34.395Z,13.71
2019-03-26T08:18:04.900Z,12.77
2019-03-26T08:20:34.039Z,12.97
2019-03-26T08:23:02.883Z,12.93
2019-03-26T08:25:33.862Z,12.57
2019-03-26T08:28:04.947Z,12.50
2019-03-26T08:30:32.697Z,12.91
2019-03-26T08:33:01.442Z,13.33
2019-03-26T08:35:30.191Z,13.49
2019-03-26T08:38:11.397Z,13.68
2019-03-26T08:40:29.411Z,13.87
2019-03-26T08:42:58.171Z,13.51
2019-03-26T08:45:26.906Z,13.46
2019-03-26T08:47:55.618Z,13.14
2019-03-26T08:50:24.351Z,13.52
2019-03-26T08:52:53.046Z,13.13
2019-03-26T08:55:21.748Z,13.00
2019-03-26T08:57:50.534Z,13.66
2019-03-26T09:00:20.554Z,13.77
2019-03-26T09:02:49.360Z,14.14
2019-03-26T09:05:18.267Z,14.69
2019-03-26T09:07:47.052Z,15.01
2019-03-26T09:10:15.858Z,14.19
2019-03-26T09:12:44.958Z,13.98
2019-03-26T09:15:14.797Z,13.74
2019-03-26T09:17:44.637Z,13.64
2019-03-26T09:20:14.463Z,13.28
2019-03-26T09:22:43.585Z,13.16
2019-03-26T09:25:12.753Z,13.28
2019-03-26T09:27:41.511Z,13.37
2019-03-26T09:30:13.111Z,13.34
2019-03-26T09:32:41.801Z,13.84
2019-03-26T09:35:14.679Z,13.34
2019-03-26T09:37:43.697Z,13.24
2019-03-26T09:40:12.944Z,13.31
2019-03-26T09:42:41.719Z,13.18
2019-03-26T09:45:11.853Z,12.88
2019-03-26T09:47:40.623Z,12.45
2019-03-26T09:50:11.342Z,12.47
2019-03-26T09:52:40.037Z,12.67
2019-03-26T09:55:09.383Z,12.82
2019-03-26T09:57:38.453Z,12.52
2019-03-26T10:00:11.893Z,12.42
2019-03-26T10:02:43.042Z,12.34
2019-03-26T10:05:12.032Z,12.30
2019-03-26T10:07:40.898Z,12.75
2019-03-26T10:10:10.513Z,13.22
2019-03-26T10:12:41.645Z,13.29
2019-03-26T10:15:11.056Z,13.25
2019-03-26T10:17:39.996Z,13.05
2019-03-26T10:20:09.656Z,12.92
2019-03-26T10:22:38.549Z,12.92
2019-03-26T10:25:11.315Z,12.48
2019-03-26T10:27:40.308Z,12.77
2019-03-26T10:30:12.271Z,12.76
2019-03-26T10:32:41.328Z,13.07
2019-03-26T10:35:10.400Z,13.65
2019-03-26T10:37:39.310Z,13.56
2019-03-26T10:40:10.206Z,13.61
2019-03-26T10:42:38.930Z,13.54
2019-03-26T10:45:08.350Z,13.65
2019-03-26T10:47:37.244Z,14.51
2019-03-26T10:50:07.443Z,15.22
2019-03-26T10:52:36.136Z,15.06
2019-03-26T10:55:06.453Z,15.80
2019-03-26T10:57:36.227Z,15.97
2019-03-26T11:00:09.198Z,15.03
2019-03-26T11:02:40.395Z,14.71
2019-03-26T11:05:10.173Z,14.52
2019-03-26T11:07:39.017Z,14.35
2019-03-26T11:10:08.890Z,14.04
2019-03-26T11:12:37.772Z,13.95
2019-03-26T11:15:07.811Z,13.92
2019-03-26T11:17:37.680Z,13.76
2019-03-26T11:20:07.691Z,13.74
2019-03-26T11:22:36.529Z,14.01
2019-03-26T11:25:12.225Z,13.87
2019-03-26T11:27:41.021Z,13.68
2019-03-26T11:30:10.542Z,13.54
2019-03-26T11:32:39.333Z,12.87
2019-03-26T11:35:09.687Z,12.94
2019-03-26T11:37:39.161Z,13.24
2019-03-26T11:40:08.658Z,13.37
2019-03-26T11:42:37.474Z,13.49
2019-03-26T11:45:09.323Z,13.43
2019-03-26T11:47:39.934Z,13.15
2019-03-26T11:50:09.028Z,13.32
2019-03-26T11:52:38.379Z,12.82
2019-03-26T11:55:08.375Z,13.02
2019-03-26T11:57:37.076Z,12.97
2019-03-26T12:00:14.436Z,13.38
2019-03-26T12:02:43.187Z,13.01
2019-03-26T12:05:12.520Z,12.41
2019-03-26T12:07:42.912Z,12.18
2019-03-26T12:10:12.205Z,12.34
2019-03-26T12:12:40.911Z,12.04
2019-03-26T12:15:10.511Z,12.00
2019-03-26T12:17:39.203Z,12.07
2019-03-26T12:20:09.192Z,12.16
2019-03-26T12:22:37.898Z,12.06
2019-03-26T12:25:07.515Z,11.71
2019-03-26T12:27:37.000Z,11.60
2019-03-26T12:30:07.971Z,11.62
2019-03-26T12:32:37.000Z,11.45
2019-03-26T12:35:08.622Z,11.21
2019-03-26T12:37:37.309Z,10.55
2019-03-26T12:40:07.459Z,10.47
2019-03-26T12:42:36.323Z,9.75
2019-03-26T12:45:07.274Z,9.07
2019-03-26T12:47:36.302Z,8.88
2019-03-26T12:50:07.412Z,8.72
2019-03-26T12:52:36.334Z,8.62
2019-03-26T12:55:06.080Z,8.31
2019-03-26T12:57:34.806Z,8.40
2019-03-26T13:00:03.556Z,8.51
2019-03-26T13:02:35.685Z,8.61
2019-03-26T13:05:02.988Z,8.68
2019-03-26T13:07:31.697Z,8.16
2019-03-26T13:10:12.613Z,7.82
2019-03-26T13:12:30.822Z,7.65
2019-03-26T13:14:59.632Z,7.54
2019-03-26T13:17:28.295Z,7.51
2019-03-26T13:19:57.000Z,7.49
2019-03-26T13:22:25.750Z,7.55
2019-03-26T13:24:54.529Z,7.61
2019-03-26T13:27:23.287Z,7.60
2019-03-26T13:29:51.949Z,7.66
2019-03-26T13:32:20.754Z,7.74
2019-03-26T13:34:51.496Z,7.74
2019-03-26T13:37:21.741Z,7.77
2019-03-26T13:39:51.269Z,7.81
2019-03-26T13:42:19.969Z,7.91
2019-03-26T13:44:48.703Z,8.01
2019-03-26T13:47:17.422Z,7.98
2019-03-26T13:49:46.177Z,7.95
2019-03-26T13:52:15.026Z,7.98
2019-03-26T13:54:43.751Z,8.04
2019-03-26T13:57:12.464Z,8.08
2019-03-26T13:59:41.230Z,8.10
2019-03-26T14:02:10.120Z,8.13
2019-03-26T14:04:38.819Z,8.13
2019-03-26T14:07:07.519Z,8.23
2019-03-26T14:09:36.210Z,8.29
2019-03-26T14:12:05.031Z,8.34
2019-03-26T14:14:33.791Z,8.40
2019-03-26T14:17:05.485Z,8.56
2019-03-26T14:19:33.176Z,8.82
2019-03-26T14:22:01.985Z,9.16
2019-03-26T14:24:30.982Z,9.64
2019-03-26T14:26:59.702Z,10.06
2019-03-26T14:29:28.491Z,10.31
2019-03-26T14:31:57.179Z,10.49
2019-03-26T14:34:25.899Z,10.43
2019-03-26T14:36:54.679Z,9.84
2019-03-26T14:39:23.438Z,9.96
2019-03-26T14:41:52.263Z,9.98
2019-03-26T14:44:21.139Z,10.05
2019-03-26T14:46:49.855Z,10.08
2019-03-26T14:49:18.688Z,10.26
2019-03-26T14:51:47.402Z,10.32
2019-03-26T14:54:16.181Z,10.43
2019-03-26T14:56:45.049Z,10.35
2019-03-26T14:59:13.848Z,10.45
2019-03-26T15:01:44.634Z,10.26
2019-03-26T15:04:13.475Z,10.27
2019-03-26T15:06:45.392Z,10.35
2019-03-26T15:09:14.430Z,10.17
2019-03-26T15:11:43.174Z,10.11
2019-03-26T15:14:12.017Z,10.00
2019-03-26T15:16:40.682Z,10.02
2019-03-26T15:19:09.372Z,9.96
2019-03-26T15:21:38.099Z,10.00
2019-03-26T15:24:06.839Z,10.08
2019-03-26T15:26:35.603Z,10.04
2019-03-26T15:29:04.392Z,10.05
2019-03-26T15:31:33.109Z,9.96
2019-03-26T15:34:01.893Z,9.83
2019-03-26T15:36:30.666Z,9.80
2019-03-26T15:38:59.463Z,9.83
2019-03-26T15:41:30.298Z,9.89
2019-03-26T15:43:58.695Z,9.99
2019-03-26T15:46:27.447Z,10.03
2019-03-26T15:48:56.948Z,9.97
2019-03-26T15:51:25.716Z,9.97
2019-03-26T15:53:54.415Z,9.86
2019-03-26T15:56:23.187Z,9.74
2019-03-26T15:58:52.254Z,9.79
2019-03-26T16:01:24.285Z,9.74
2019-03-26T16:03:51.553Z,9.84
2019-03-26T16:06:20.237Z,9.86
2019-03-26T16:08:49.069Z,9.84
2019-03-26T16:11:17.768Z,9.79
2019-03-26T16:13:46.451Z,9.78
2019-03-26T16:16:15.133Z,9.67
2019-03-26T16:18:43.850Z,9.68
2019-03-26T16:21:12.559Z,9.65
2019-03-26T16:23:41.410Z,9.63
2019-03-26T16:26:10.098Z,9.60
2019-03-26T16:28:38.763Z,9.56
2019-03-26T16:31:07.560Z,9.48
2019-03-26T16:33:36.224Z,9.51
2019-03-26T16:36:05.129Z,9.53
2019-03-26T16:38:33.815Z,9.56
2019-03-26T16:41:02.509Z,9.56
2019-03-26T16:43:31.197Z,9.51
2019-03-26T16:45:59.988Z,9.53
2019-03-26T16:48:28.661Z,9.50
2019-03-26T16:50:57.493Z,9.58
2019-03-26T16:53:26.175Z,9.65
2019-03-26T16:55:54.893Z,9.66
2019-03-26T16:58:23.579Z,9.75
2019-03-26T17:00:52.272Z,9.76
2019-03-26T17:03:30.742Z,9.81
2019-03-26T17:05:51.353Z,9.81
2019-03-26T17:08:22.683Z,9.85
2019-03-26T17:10:50.661Z,9.87
2019-03-26T17:13:19.356Z,9.90
2019-03-26T17:15:48.093Z,9.93
2019-03-26T17:18:16.864Z,9.85
2019-03-26T17:20:45.561Z,9.86
2019-03-26T17:23:14.253Z,9.86
2019-03-26T17:25:42.952Z,9.85
2019-03-26T17:28:11.628Z,9.83
2019-03-26T17:30:40.314Z,9.84
2019-03-26T17:33:09.090Z,9.82
2019-03-26T17:35:37.786Z,9.77
2019-03-26T17:38:06.491Z,9.65
2019-03-26T17:40:35.198Z,9.68
2019-03-26T17:43:03.973Z,9.63
2019-03-26T17:45:32.673Z,9.59
2019-03-26T17:48:01.353Z,9.54
2019-03-26T17:50:30.033Z,9.55
2019-03-26T17:52:58.797Z,9.58
2019-03-26T17:55:27.466Z,9.58
2019-03-26T17:57:56.217Z,9.63
2019-03-26T18:00:39.562Z,9.59
2019-03-26T18:03:08.381Z,9.59
2019-03-26T18:05:37.077Z,9.59
2019-03-26T18:08:05.907Z,9.51
2019-03-26T18:10:34.669Z,9.50
2019-03-26T18:13:03.369Z,9.52
2019-03-26T18:15:32.043Z,9.52
2019-03-26T18:18:00.754Z,9.52
2019-03-26T18:20:32.703Z,9.52
2019-03-26T18:22:59.844Z,9.47
2019-03-26T18:25:28.500Z,9.49
2019-03-26T18:27:57.179Z,9.50
2019-03-26T18:30:25.857Z,9.47
2019-03-26T18:32:54.569Z,9.45
2019-03-26T18:35:23.476Z,9.39
2019-03-26T18:37:52.145Z,9.40
2019-03-26T18:40:20.822Z,9.33
2019-03-26T18:42:49.497Z,9.28
2019-03-26T18:45:18.185Z,9.20
2019-03-26T18:47:46.871Z,9.19
2019-03-26T18:50:16.332Z,9.20
2019-03-26T18:52:45.022Z,9.12
2019-03-26T18:55:13.772Z,9.13
2019-03-26T18:57:42.666Z,9.14
2019-03-26T19:00:17.333Z,9.10
2019-03-26T19:02:46.010Z,9.04
2019-03-26T19:05:15.176Z,8.99
2019-03-26T19:07:43.869Z,8.89
2019-03-26T19:10:24.374Z,8.81
2019-03-26T19:12:57.091Z,8.75
2019-03-26T19:15:23.557Z,8.69
2019-03-26T19:17:52.320Z,8.67
2019-03-26T19:20:21.029Z,8.65
2019-03-26T19:22:49.737Z,8.62
2019-03-26T19:25:18.429Z,8.62
2019-03-26T19:27:47.112Z,8.61
2019-03-26T19:30:15.858Z,8.63
2019-03-26T19:32:44.611Z,8.58
2019-03-26T19:35:13.600Z,8.59
2019-03-26T19:37:42.318Z,8.55
2019-03-26T19:40:11.197Z,8.42
2019-03-26T19:42:39.917Z,8.48
2019-03-26T19:45:10.271Z,8.44
2019-03-26T19:47:38.953Z,8.41
2019-03-26T19:50:09.182Z,8.37
2019-03-26T19:52:37.877Z,8.18
2019-03-26T19:55:07.754Z,8.38
2019-03-26T19:57:36.839Z,8.42
2019-03-26T20:00:14.365Z,8.38
2019-03-26T20:02:43.030Z,8.46
2019-03-26T20:05:12.510Z,8.42
2019-03-26T20:07:41.292Z,8.37
2019-03-26T20:10:11.978Z,8.34
2019-03-26T20:12:40.616Z,8.28
2019-03-26T20:15:11.217Z,8.25
2019-03-26T20:17:39.878Z,8.21
2019-03-26T20:20:09.938Z,8.13
2019-03-26T20:22:39.236Z,8.07
2019-03-26T20:25:08.602Z,8.04
2019-03-26T20:27:37.265Z,7.93
2019-03-26T20:30:07.634Z,7.85
2019-03-26T20:32:36.303Z,7.80
2019-03-26T20:35:07.651Z,7.77
2019-03-26T20:37:36.332Z,7.72
2019-03-26T20:40:08.068Z,7.68
2019-03-26T20:42:36.791Z,7.63
2019-03-26T20:45:08.964Z,7.53
2019-03-26T20:47:37.876Z,7.46
2019-03-26T20:50:08.336Z,7.44
2019-03-26T20:52:37.704Z,7.33
2019-03-26T20:55:08.841Z,7.31
2019-03-26T20:57:37.752Z,7.34
2019-03-26T21:00:09.610Z,7.30
2019-03-26T21:02:38.303Z,7.34
2019-03-26T21:05:08.266Z,7.24
2019-03-26T21:07:38.136Z,6.84
2019-03-26T21:10:10.995Z,7.15
2019-03-26T21:12:40.791Z,7.07
2019-03-26T21:15:10.471Z,7.10
2019-03-26T21:17:39.228Z,7.10
2019-03-26T21:20:09.565Z,7.08
2019-03-26T21:22:38.231Z,7.11
2019-03-26T21:25:08.552Z,7.05
2019-03-26T21:27:37.235Z,7.02
2019-03-26T21:30:11.600Z,7.06
2019-03-26T21:32:39.244Z,7.04
2019-03-26T21:35:08.811Z,7.10
2019-03-26T21:37:38.683Z,7.05
2019-03-26T21:40:08.491Z,7.06
2019-03-26T21:42:37.164Z,7.08
2019-03-26T21:45:07.839Z,7.05
2019-03-26T21:47:36.584Z,6.97
2019-03-26T21:50:08.920Z,7.03
2019-03-26T21:52:37.593Z,7.12
2019-03-26T21:55:08.799Z,7.17
2019-03-26T21:57:37.471Z,7.27
2019-03-26T22:00:09.329Z,7.28
2019-03-26T22:02:38.017Z,7.35
2019-03-26T22:05:08.389Z,7.39
2019-03-26T22:07:37.037Z,6.83
2019-03-26T22:10:06.846Z,7.08
2019-03-26T22:12:35.525Z,7.46
2019-03-26T22:15:06.811Z,7.47
2019-03-26T22:17:35.473Z,7.47
2019-03-26T22:20:05.557Z,7.49
2019-03-26T22:22:34.241Z,7.45
2019-03-26T22:25:02.945Z,7.46
2019-03-26T22:27:31.608Z,7.43
2019-03-26T22:30:00.392Z,7.40
2019-03-26T22:32:29.136Z,7.37
2019-03-26T22:34:57.803Z,7.37
2019-03-26T22:37:26.583Z,7.44
2019-03-26T22:39:55.240Z,7.47
2019-03-26T22:42:23.928Z,7.48
2019-03-26T22:44:52.613Z,7.50
2019-03-26T22:47:21.315Z,7.51
2019-03-26T22:49:49.992Z,7.49
2019-03-26T22:52:18.677Z,7.54
2019-03-26T22:54:47.357Z,7.56
2019-03-26T22:57:16.022Z,7.53
2019-03-26T22:59:44.711Z,7.52
2019-03-26T23:02:13.400Z,7.54
2019-03-26T23:04:42.206Z,7.58
2019-03-26T23:07:10.877Z,7.47
2019-03-26T23:09:39.564Z,7.44
2019-03-26T23:12:08.260Z,7.45
2019-03-26T23:14:45.020Z,7.38
2019-03-26T23:17:07.357Z,7.45
2019-03-26T23:19:36.024Z,7.43
2019-03-26T23:22:04.803Z,7.47
2019-03-26T23:24:33.500Z,7.45
2019-03-26T23:27:02.162Z,7.38
2019-03-26T23:29:30.829Z,7.27
2019-03-26T23:31:59.501Z,7.23
2019-03-26T23:34:28.393Z,7.23
2019-03-26T23:36:57.076Z,7.22
2019-03-26T23:39:25.743Z,7.23
2019-03-26T23:41:54.433Z,7.26
2019-03-26T23:44:25.960Z,7.25
2019-03-26T23:46:53.511Z,7.29
2019-03-26T23:49:22.169Z,7.28
2019-03-26T23:51:50.847Z,7.28
2019-03-26T23:54:19.646Z,7.32
2019-03-26T23:56:48.322Z,7.28
2019-03-26T23:59:16.995Z,7.23
